Time;durP1;ratioP1;P1;durP2;ratioP2;P2;SDS_P1;SDS_P2;PMS_P1;PMS_P2;Temp;Humidity;BMP_temperature;BMP_pressure;BME280_temperature;BME280_humidity;BME280_pressure;Samples;Min_cycle;Max_cycle;Signal;HPM_P1;HPM_P2
2024/01/12 00:01:19;;;;;;;47.40;20.00;;;-0.60;99.90;;;;;;5035815;28;20177;-78
2024/01/12 00:03:44;;;;;;;47.23;20.60;;;-0.50;99.90;;;;;;5035217;28;20263;-78
2024/01/12 00:06:10;;;;;;;48.47;20.77;;;-0.50;99.90;;;;;;5035489;28;20193;-78
2024/01/12 00:08:39;;;;;;;53.33;22.47;;;-0.50;99.90;;;;;;5035201;28;20670;-78
2024/01/12 00:11:08;;;;;;;52.38;23.42;;;-0.50;99.90;;;;;;5035016;28;20512;-78
2024/01/12 00:13:34;;;;;;;52.22;22.05;;;-0.50;99.90;;;;;;5017033;28;20166;-78
2024/01/12 00:16:07;;;;;;;44.63;18.90;;;-0.50;99.90;;;;;;5034710;28;20724;-78
2024/01/12 00:18:36;;;;;;;50.10;21.00;;;-0.50;99.90;;;;;;5035333;28;20723;-79
2024/01/12 00:21:02;;;;;;;47.83;21.60;;;-0.50;99.90;;;;;;5034574;28;20224;-79
2024/01/12 00:23:27;;;;;;;49.07;21.50;;;-0.50;99.90;;;;;;5016679;28;20639;-78
2024/01/12 00:25:59;;;;;;;58.53;21.57;;;-0.40;99.90;;;;;;5034208;28;20425;-78
2024/01/12 00:28:27;;;;;;;41.13;19.48;;;-0.40;99.90;;;;;;5034683;28;20180;-78
2024/01/12 00:30:53;;;;;;;46.67;20.85;;;-0.40;99.90;;;;;;5034737;28;20196;-79
2024/01/12 00:33:18;;;;;;;52.75;22.35;;;-0.30;99.90;;;;;;5034461;28;20192;-78
2024/01/12 00:35:44;;;;;;;45.33;20.33;;;-0.40;99.90;;;;;;5034386;28;20178;-78
2024/01/12 00:38:10;;;;;;;42.70;20.70;;;-0.40;99.90;;;;;;5034337;28;20166;-78
2024/01/12 00:40:36;;;;;;;44.63;19.73;;;-0.40;99.90;;;;;;5034422;28;20280;-78
2024/01/12 00:43:01;;;;;;;50.27;22.00;;;-0.40;99.90;;;;;;5034649;28;20165;-79
2024/01/12 00:45:27;;;;;;;51.40;23.43;;;-0.40;99.90;;;;;;5016639;28;20169;-80
2024/01/12 00:47:53;;;;;;;48.40;21.90;;;-0.40;99.90;;;;;;5033887;28;20188;-78
2024/01/12 00:50:18;;;;;;;48.70;21.80;;;-0.40;99.90;;;;;;5034504;28;20201;-78
2024/01/12 00:52:44;;;;;;;51.10;23.70;;;-0.40;99.90;;;;;;5034115;28;20165;-78
2024/01/12 00:55:11;;;;;;;52.78;23.50;;;-0.40;99.90;;;;;;5034072;28;20197;-79
2024/01/12 00:57:37;;;;;;;51.72;22.80;;;-0.40;99.90;;;;;;5016217;28;20666;-79
2024/01/12 01:00:07;;;;;;;49.83;21.13;;;-0.40;99.90;;;;;;5034175;28;20168;-78
2024/01/12 01:02:32;;;;;;;50.95;21.98;;;-0.40;99.90;;;;;;5034023;28;20169;-78
2024/01/12 01:04:58;;;;;;;53.37;22.50;;;-0.40;99.90;;;;;;5016348;28;20176;-79
2024/01/12 01:07:24;;;;;;;45.50;21.33;;;-0.40;99.90;;;;;;5034044;28;20198;-78
2024/01/12 01:09:49;;;;;;;59.00;23.20;;;-0.40;99.90;;;;;;5033767;28;20204;-78
2024/01/12 01:12:15;;;;;;;70.07;22.93;;;-0.40;99.90;;;;;;5034034;28;20170;-79
2024/01/12 01:14:41;;;;;;;56.90;22.53;;;-0.40;99.90;;;;;;5033895;28;20646;-78
2024/01/12 01:17:06;;;;;;;49.70;21.80;;;-0.40;99.90;;;;;;5033958;28;20247;-78
2024/01/12 01:19:32;;;;;;;54.33;22.10;;;-0.30;99.90;;;;;;5034187;28;20173;-79
2024/01/12 01:21:58;;;;;;;53.58;24.25;;;-0.30;99.90;;;;;;5015944;28;20543;-78
2024/01/12 01:24:29;;;;;;;50.80;22.83;;;-0.40;99.90;;;;;;5033669;28;20162;-78
2024/01/12 01:26:55;;;;;;;60.58;23.40;;;-0.30;99.90;;;;;;5015992;28;20214;-78
2024/01/12 01:29:21;;;;;;;56.88;22.10;;;-0.40;99.90;;;;;;5033995;28;20232;-78
2024/01/12 01:31:48;;;;;;;51.33;22.42;;;-0.40;99.90;;;;;;5015847;28;20177;-79
2024/01/12 01:34:14;;;;;;;60.03;24.48;;;-0.40;99.90;;;;;;5015999;28;20189;-78
2024/01/12 01:36:40;;;;;;;53.55;23.38;;;-0.40;99.90;;;;;;5033734;28;20186;-78
2024/01/12 01:39:05;;;;;;;49.03;23.67;;;-0.30;99.90;;;;;;5033937;28;20555;-79
2024/01/12 01:41:31;;;;;;;57.60;22.77;;;-0.30;99.90;;;;;;5033840;28;20536;-79
2024/01/12 01:43:57;;;;;;;57.83;23.37;;;-0.30;99.90;;;;;;5033807;28;20177;-79
2024/01/12 01:46:23;;;;;;;58.40;25.70;;;-0.30;99.90;;;;;;5033694;28;20273;-78
2024/01/12 01:48:49;;;;;;;56.97;21.40;;;-0.30;99.90;;;;;;5033798;28;20547;-78
2024/01/12 01:51:15;;;;;;;55.43;22.67;;;-0.30;99.90;;;;;;5015683;28;20161;-78
2024/01/12 01:53:41;;;;;;;52.60;23.42;;;-0.30;99.90;;;;;;5015585;28;20930;-78
2024/01/12 01:56:06;;;;;;;50.88;21.92;;;-0.30;99.90;;;;;;5033478;28;20186;-78
2024/01/12 01:58:34;;;;;;;54.87;23.50;;;-0.30;99.90;;;;;;5033277;28;20253;-78
2024/01/12 02:01:00;;;;;;;45.78;20.63;;;-0.30;99.90;;;;;;5033508;28;20170;-79
2024/01/12 02:03:26;;;;;;;57.10;22.20;;;-0.30;99.90;;;;;;5015476;28;20174;-78
2024/01/12 02:05:54;;;;;;;53.40;22.92;;;-0.20;99.90;;;;;;5018786;28;20169;-78
2024/01/12 02:08:20;;;;;;;58.28;23.92;;;-0.20;99.90;;;;;;5019284;28;20193;-78
2024/01/12 02:10:45;;;;;;;59.70;26.45;;;-0.30;99.90;;;;;;5036858;28;20165;-78
2024/01/12 02:13:11;;;;;;;56.33;23.97;;;-0.20;99.90;;;;;;5037005;28;20166;-78
2024/01/12 02:15:37;;;;;;;53.13;21.87;;;-0.20;99.90;;;;;;5036945;28;20166;-78
2024/01/12 02:18:03;;;;;;;54.83;22.30;;;-0.30;99.90;;;;;;5036774;28;20165;-78
2024/01/12 02:20:28;;;;;;;50.33;23.60;;;-0.20;99.90;;;;;;5036674;28;20177;-79
2024/01/12 02:22:54;;;;;;;53.97;22.87;;;-0.20;99.90;;;;;;5036757;28;20405;-78
2024/01/12 02:25:20;;;;;;;51.80;22.13;;;-0.20;99.90;;;;;;5037195;28;20172;-80
2024/01/12 02:27:46;;;;;;;54.10;23.93;;;-0.20;99.90;;;;;;5036457;28;20284;-78
2024/01/12 02:30:12;;;;;;;53.70;23.30;;;-0.20;99.90;;;;;;5036939;28;20444;-78
2024/01/12 02:32:38;;;;;;;50.33;22.43;;;-0.20;99.90;;;;;;5036596;28;20165;-78
2024/01/12 02:35:04;;;;;;;67.00;24.30;;;-0.20;99.90;;;;;;5036476;28;20408;-78
2024/01/12 02:37:29;;;;;;;65.05;25.05;;;-0.10;99.90;;;;;;5018625;28;20320;-79
2024/01/12 02:39:55;;;;;;;52.73;22.60;;;-0.10;99.90;;;;;;5036428;28;20166;-78
2024/01/12 02:42:23;;;;;;;57.30;23.37;;;-0.10;99.90;;;;;;5018491;28;20193;-78
2024/01/12 02:44:49;;;;;;;54.58;23.90;;;-0.10;99.90;;;;;;5036542;28;20220;-78
2024/01/12 02:47:15;;;;;;;61.07;22.90;;;-0.20;99.90;;;;;;5018344;28;20289;-79
2024/01/12 02:49:43;;;;;;;50.43;22.60;;;-0.20;99.90;;;;;;5018350;28;20194;-78
2024/01/12 02:52:08;;;;;;;54.83;22.25;;;-0.20;99.90;;;;;;5036186;28;20165;-79
2024/01/12 02:54:34;;;;;;;49.40;24.60;;;-0.10;99.90;;;;;;5018624;28;20162;-78
2024/01/12 02:57:00;;;;;;;56.07;25.20;;;-0.10;99.90;;;;;;5036572;28;20423;-78
2024/01/12 02:59:25;;;;;;;66.10;27.07;;;-0.10;99.90;;;;;;5036123;28;20193;-78
2024/01/12 03:01:51;;;;;;;47.87;21.80;;;-0.10;99.90;;;;;;5036095;28;20176;-78
2024/01/12 03:04:17;;;;;;;54.53;24.53;;;-0.10;99.90;;;;;;5036071;28;20174;-79
2024/01/12 03:06:42;;;;;;;52.80;21.80;;;-0.10;99.90;;;;;;5018018;28;20212;-79
2024/01/12 03:09:08;;;;;;;48.20;23.40;;;-0.10;99.90;;;;;;5035869;28;20185;-79
2024/01/12 03:11:34;;;;;;;58.83;24.00;;;-0.20;99.90;;;;;;5035596;28;20162;-79
2024/01/12 03:13:59;;;;;;;46.77;21.10;;;-0.20;99.90;;;;;;5018137;28;20166;-78
2024/01/12 03:16:25;;;;;;;63.50;24.60;;;-0.20;99.90;;;;;;5035631;28;20213;-79
2024/01/12 03:18:51;;;;;;;73.17;27.53;;;-0.20;99.90;;;;;;5017990;28;20174;-80
2024/01/12 03:21:17;;;;;;;60.53;25.77;;;-0.20;99.90;;;;;;5035938;28;20162;-79
2024/01/12 03:23:43;;;;;;;54.88;23.45;;;-0.20;99.90;;;;;;5017583;28;20173;-79
2024/01/12 03:26:08;;;;;;;55.53;24.23;;;-0.20;99.90;;;;;;5017831;28;20205;-78
2024/01/12 03:28:36;;;;;;;66.17;25.10;;;-0.10;99.90;;;;;;5035485;28;20198;-78
2024/01/12 03:31:06;;;;;;;54.55;24.80;;;-0.10;99.90;;;;;;5035539;28;20166;-79
2024/01/12 03:33:32;;;;;;;64.65;25.92;;;-0.10;99.90;;;;;;5035457;28;20162;-79
2024/01/12 03:35:57;;;;;;;60.87;23.20;;;-0.10;99.90;;;;;;5035739;28;20188;-78
2024/01/12 03:38:23;;;;;;;56.60;26.60;;;-0.10;99.90;;;;;;5035521;28;20397;-78
2024/01/12 03:40:49;;;;;;;59.00;25.80;;;0.00;99.90;;;;;;5035758;28;20176;-78
2024/01/12 03:43:15;;;;;;;54.90;24.37;;;-0.10;99.90;;;;;;5035173;28;20409;-78
2024/01/12 03:45:43;;;;;;;58.40;24.43;;;-0.10;99.90;;;;;;5035096;28;20181;-79
2024/01/12 03:48:09;;;;;;;61.58;26.92;;;-0.10;99.90;;;;;;5034933;28;20177;-78
2024/01/12 03:50:35;;;;;;;53.07;25.23;;;-0.10;99.90;;;;;;5017282;28;20170;-79
2024/01/12 03:53:00;;;;;;;70.40;25.80;;;0.00;99.90;;;;;;5017390;28;20205;-79
2024/01/12 03:55:26;;;;;;;56.90;25.63;;;0.00;99.90;;;;;;5034842;28;20170;-79
2024/01/12 03:57:52;;;;;;;52.90;25.10;;;0.00;99.90;;;;;;5035007;28;20178;-79
2024/01/12 04:00:18;;;;;;;50.93;24.43;;;0.00;99.90;;;;;;5034980;28;20225;-79
2024/01/12 04:02:44;;;;;;;57.77;24.40;;;0.00;99.90;;;;;;5017357;28;20523;-79
2024/01/12 04:05:10;;;;;;;56.00;25.67;;;0.00;99.90;;;;;;5035078;28;20401;-79
2024/01/12 04:07:35;;;;;;;60.97;25.30;;;0.00;99.90;;;;;;5016897;28;20197;-78
2024/01/12 04:10:01;;;;;;;58.80;26.70;;;0.00;99.90;;;;;;5034703;28;20190;-78
2024/01/12 04:12:27;;;;;;;55.23;24.37;;;0.00;99.90;;;;;;5016809;28;20170;-79
2024/01/12 04:14:52;;;;;;;54.33;23.90;;;0.00;99.90;;;;;;5034629;28;20181;-79
2024/01/12 04:17:18;;;;;;;59.10;26.10;;;0.00;99.90;;;;;;5034578;28;20567;-79
2024/01/12 04:19:44;;;;;;;75.73;24.20;;;0.00;99.90;;;;;;5016682;28;20180;-79
2024/01/12 04:22:09;;;;;;;70.00;25.33;;;0.00;99.90;;;;;;5016894;28;20587;-79
2024/01/12 04:24:35;;;;;;;58.70;25.90;;;0.00;99.90;;;;;;5016578;28;20646;-79
2024/01/12 04:27:01;;;;;;;50.70;23.77;;;0.00;99.90;;;;;;5033759;28;20586;-79
2024/01/12 04:29:29;;;;;;;50.93;24.03;;;0.00;99.90;;;;;;5034781;28;20197;-79
2024/01/12 04:31:55;;;;;;;59.63;25.30;;;0.00;99.90;;;;;;5016618;28;20173;-78
2024/01/12 04:34:21;;;;;;;61.13;24.43;;;0.00;99.90;;;;;;5034380;28;20162;-80
2024/01/12 04:36:46;;;;;;;53.63;24.20;;;0.00;99.90;;;;;;5034285;28;20675;-79
2024/01/12 04:39:12;;;;;;;56.13;24.10;;;0.00;99.90;;;;;;5016421;28;20661;-79
2024/01/12 04:41:38;;;;;;;62.22;27.10;;;0.00;99.90;;;;;;5016478;28;20177;-79
2024/01/12 04:44:03;;;;;;;53.37;25.13;;;0.00;99.90;;;;;;5016363;28;20166;-79
2024/01/12 04:46:29;;;;;;;64.93;27.30;;;0.00;99.90;;;;;;5034062;28;20239;-79
2024/01/12 04:48:55;;;;;;;64.07;29.10;;;0.00;99.90;;;;;;5034334;28;20186;-79
2024/01/12 04:51:21;;;;;;;64.77;26.50;;;0.10;99.90;;;;;;5034996;28;20174;-78
2024/01/12 04:53:46;;;;;;;56.20;24.60;;;0.10;99.90;;;;;;5016024;28;20185;-79
2024/01/12 04:56:12;;;;;;;59.33;25.27;;;0.10;99.90;;;;;;5016311;28;20424;-79
2024/01/12 04:58:38;;;;;;;61.70;25.80;;;0.10;99.90;;;;;;5016386;28;20174;-79
2024/01/12 05:01:04;;;;;;;49.47;24.40;;;0.10;99.90;;;;;;5034004;28;20166;-79
2024/01/12 05:03:30;;;;;;;62.10;25.20;;;0.10;99.90;;;;;;5016744;28;20666;-79
2024/01/12 05:05:55;;;;;;;54.53;23.77;;;0.10;99.90;;;;;;5016382;28;20178;-79
2024/01/12 05:08:21;;;;;;;56.97;25.73;;;0.20;99.90;;;;;;5034101;28;20169;-79
2024/01/12 05:10:46;;;;;;;61.33;25.90;;;0.30;99.90;;;;;;5034104;28;20169;-79
2024/01/12 05:13:12;;;;;;;58.30;25.10;;;0.20;99.90;;;;;;5034214;28;20166;-79
2024/01/12 05:15:38;;;;;;;55.50;25.30;;;0.20;99.90;;;;;;5033736;28;20166;-79
2024/01/12 05:18:04;;;;;;;61.23;26.10;;;0.20;99.90;;;;;;5033616;28;20158;-79
2024/01/12 05:20:29;;;;;;;57.72;26.95;;;0.30;99.90;;;;;;5033816;28;20173;-79
2024/01/12 05:22:55;;;;;;;57.40;25.90;;;0.20;99.90;;;;;;5033902;28;20166;-79
2024/01/12 05:25:21;;;;;;;50.97;25.07;;;0.30;99.90;;;;;;5034301;28;20178;-79
2024/01/12 05:27:46;;;;;;;56.07;26.00;;;0.20;99.90;;;;;;5033552;28;20197;-79
2024/01/12 05:30:13;;;;;;;54.10;26.93;;;0.20;99.90;;;;;;5015989;28;20666;-79
2024/01/12 05:32:39;;;;;;;63.85;28.15;;;0.20;99.90;;;;;;5015953;28;20308;-79
2024/01/12 05:35:05;;;;;;;55.53;29.53;;;0.20;99.90;;;;;;5034133;28;20186;-80
2024/01/12 05:37:30;;;;;;;58.35;25.42;;;0.20;99.90;;;;;;5033595;28;20178;-79
2024/01/12 05:39:56;;;;;;;64.23;27.53;;;0.20;99.90;;;;;;5037290;28;20227;-79
2024/01/12 05:42:21;;;;;;;60.87;30.27;;;0.30;99.90;;;;;;5037530;28;20166;-79
2024/01/12 05:44:47;;;;;;;55.20;25.37;;;0.30;99.90;;;;;;5019797;28;20220;-80
2024/01/12 05:47:13;;;;;;;62.77;27.60;;;0.30;99.90;;;;;;5037634;28;20188;-80
2024/01/12 05:49:39;;;;;;;67.90;29.88;;;0.20;99.90;;;;;;5019460;28;20249;-79
2024/01/12 05:52:05;;;;;;;80.53;32.50;;;0.20;99.90;;;;;;5037934;28;20639;-79
2024/01/12 05:54:31;;;;;;;71.38;30.35;;;0.20;99.90;;;;;;5037832;28;20170;-80
2024/01/12 05:56:56;;;;;;;69.33;31.30;;;0.20;99.90;;;;;;5037244;28;20520;-79
2024/01/12 05:59:22;;;;;;;59.70;27.23;;;0.20;99.90;;;;;;5036960;28;20196;-79
2024/01/12 06:01:48;;;;;;;72.70;32.40;;;0.20;99.90;;;;;;5037159;28;20166;-79
2024/01/12 06:04:13;;;;;;;70.77;31.93;;;0.20;99.90;;;;;;5037049;28;20253;-79
2024/01/12 06:06:42;;;;;;;70.10;28.57;;;0.20;99.90;;;;;;5037093;28;20193;-79
2024/01/12 06:09:08;;;;;;;67.30;31.88;;;0.20;99.90;;;;;;5036780;28;20186;-79
2024/01/12 06:11:34;;;;;;;75.53;30.37;;;0.20;99.90;;;;;;5037089;28;20288;-79
2024/01/12 06:14:02;;;;;;;65.80;30.25;;;0.20;99.90;;;;;;5036693;28;20401;-79
2024/01/12 06:16:28;;;;;;;75.65;32.13;;;0.20;99.90;;;;;;5019017;28;20617;-79
2024/01/12 06:18:54;;;;;;;68.20;31.13;;;0.20;99.90;;;;;;5037168;28;20221;-79
2024/01/12 06:21:19;;;;;;;76.17;32.73;;;0.20;99.90;;;;;;5037307;28;21007;-79
2024/01/12 06:23:45;;;;;;;65.03;30.07;;;0.20;99.90;;;;;;5037095;28;20188;-79
2024/01/12 06:26:11;;;;;;;77.00;30.07;;;0.20;99.90;;;;;;5036329;28;20694;-79
2024/01/12 06:28:37;;;;;;;81.97;29.30;;;0.20;99.90;;;;;;5037063;28;20448;-79
2024/01/12 06:31:03;;;;;;;62.20;28.90;;;0.30;99.90;;;;;;5037001;28;20244;-80
2024/01/12 06:33:31;;;;;;;67.25;28.98;;;0.30;99.90;;;;;;5037146;28;20247;-80
2024/01/12 06:35:57;;;;;;;62.05;26.15;;;0.30;99.90;;;;;;5036582;28;20563;-79
2024/01/12 06:38:22;;;;;;;63.55;28.92;;;0.30;99.90;;;;;;5037363;28;20249;-79
2024/01/12 06:40:48;;;;;;;59.93;27.07;;;0.30;99.90;;;;;;5019081;28;20170;-80
2024/01/12 06:43:13;;;;;;;66.43;29.13;;;0.20;99.90;;;;;;5036932;28;20161;-79
2024/01/12 06:45:39;;;;;;;65.00;27.47;;;0.30;99.90;;;;;;5018934;28;20169;-79
2024/01/12 06:48:05;;;;;;;53.93;26.70;;;0.30;99.90;;;;;;5034710;28;20174;-79
2024/01/12 06:50:31;;;;;;;66.53;32.33;;;0.30;99.90;;;;;;5018239;28;20194;-79
2024/01/12 06:52:56;;;;;;;62.20;29.63;;;0.30;99.90;;;;;;5036703;28;20400;-79
2024/01/12 06:55:22;;;;;;;66.77;29.60;;;0.30;99.90;;;;;;5036459;28;20158;-79
2024/01/12 06:57:48;;;;;;;68.33;28.47;;;0.30;99.90;;;;;;5018190;28;20420;-79
2024/01/12 07:00:15;;;;;;;61.10;29.63;;;0.30;99.90;;;;;;5019098;28;20177;-79
2024/01/12 07:02:40;;;;;;;74.53;33.28;;;0.30;99.90;;;;;;5018357;28;20201;-80
2024/01/12 07:05:07;;;;;;;73.13;34.90;;;0.30;99.90;;;;;;5036323;28;20166;-80
2024/01/12 07:07:32;;;;;;;77.60;32.65;;;0.30;99.90;;;;;;5036414;28;20682;-79
2024/01/12 07:09:58;;;;;;;74.17;31.10;;;0.30;99.90;;;;;;5036272;28;20221;-79
2024/01/12 07:12:24;;;;;;;69.77;31.80;;;0.40;99.90;;;;;;5036147;28;20689;-79
2024/01/12 07:14:50;;;;;;;71.57;32.00;;;0.40;99.90;;;;;;5035681;28;20412;-79
2024/01/12 07:17:16;;;;;;;77.38;35.05;;;0.40;99.90;;;;;;5035763;28;20240;-79
2024/01/12 07:19:44;;;;;;;78.27;29.70;;;0.40;99.90;;;;;;5035934;28;20626;-79
2024/01/12 07:22:10;;;;;;;74.60;33.92;;;0.40;99.90;;;;;;5035356;28;20413;-79
2024/01/12 07:24:36;;;;;;;72.50;31.40;;;0.40;99.90;;;;;;5036228;28;20169;-79
2024/01/12 07:27:01;;;;;;;72.87;32.60;;;0.40;99.90;;;;;;5035652;28;20208;-79
2024/01/12 07:29:27;;;;;;;74.70;32.77;;;0.40;99.90;;;;;;5035437;28;20320;-80
2024/01/12 07:31:54;;;;;;;74.80;33.00;;;0.40;99.90;;;;;;5035582;28;20170;-80
2024/01/12 07:34:21;;;;;;;83.07;33.53;;;0.40;99.90;;;;;;5017631;28;20261;-80
2024/01/12 07:36:46;;;;;;;75.15;33.00;;;0.40;99.90;;;;;;5035410;28;20232;-79
2024/01/12 07:39:12;;;;;;;80.27;32.90;;;0.40;99.90;;;;;;5017535;28;20635;-79
2024/01/12 07:41:38;;;;;;;83.20;34.87;;;0.40;99.90;;;;;;5035083;28;20197;-79
2024/01/12 07:44:04;;;;;;;87.75;34.75;;;0.50;99.90;;;;;;5035320;28;20169;-79
2024/01/12 07:46:30;;;;;;;77.50;33.55;;;0.50;99.90;;;;;;5017500;28;20675;-79
2024/01/12 07:48:56;;;;;;;83.80;34.33;;;0.40;99.90;;;;;;5017252;28;20281;-80
2024/01/12 07:51:22;;;;;;;76.07;34.50;;;0.40;99.90;;;;;;5035234;28;20408;-79
2024/01/12 07:53:48;;;;;;;88.80;32.87;;;0.40;99.90;;;;;;5035083;28;20527;-79
2024/01/12 07:56:14;;;;;;;90.80;34.03;;;0.50;99.90;;;;;;5034953;28;20658;-79
2024/01/12 07:58:39;;;;;;;101.40;33.07;;;0.50;99.90;;;;;;5035016;28;20177;-79
2024/01/12 08:01:05;;;;;;;104.23;39.17;;;0.50;99.90;;;;;;5034564;28;20166;-79
2024/01/12 08:03:32;;;;;;;89.40;35.60;;;0.50;99.90;;;;;;5033942;28;20538;-80
2024/01/12 08:05:59;;;;;;;100.03;36.65;;;0.50;99.90;;;;;;5034574;28;20217;-80
2024/01/12 08:08:25;;;;;;;96.30;35.03;;;0.50;99.90;;;;;;5016694;28;20173;-80
2024/01/12 08:10:50;;;;;;;101.03;38.80;;;0.50;99.90;;;;;;5034717;28;20539;-80
2024/01/12 08:13:16;;;;;;;94.47;32.53;;;0.50;99.90;;;;;;5016990;28;20173;-81
2024/01/12 08:15:42;;;;;;;92.87;34.10;;;0.50;99.90;;;;;;5035058;28;20619;-80
2024/01/12 08:18:07;;;;;;;94.97;33.17;;;0.50;99.90;;;;;;5034639;28;20208;-81
2024/01/12 08:20:33;;;;;;;82.70;32.97;;;0.50;99.90;;;;;;5016863;28;20177;-80
2024/01/12 08:22:59;;;;;;;79.47;32.30;;;0.50;99.90;;;;;;5016605;28;20890;-82
2024/01/12 08:25:25;;;;;;;75.70;30.77;;;0.50;99.90;;;;;;5034895;28;20162;-79
2024/01/12 08:27:50;;;;;;;76.90;32.80;;;0.60;99.90;;;;;;5016524;28;20699;-81
2024/01/12 08:30:16;;;;;;;86.97;33.43;;;0.60;99.90;;;;;;5034112;28;20279;-80
2024/01/12 08:32:42;;;;;;;95.50;33.97;;;0.60;99.90;;;;;;5034225;28;20225;-80
2024/01/12 08:35:08;;;;;;;77.67;33.60;;;0.60;99.90;;;;;;5034350;28;20265;-80
2024/01/12 08:37:33;;;;;;;75.75;30.52;;;0.60;99.90;;;;;;5034251;28;20186;-80
2024/01/12 08:39:59;;;;;;;84.67;34.83;;;0.60;99.90;;;;;;5034141;28;20300;-80
2024/01/12 08:42:24;;;;;;;77.57;31.90;;;0.60;99.90;;;;;;5034562;28;20634;-80
2024/01/12 08:44:51;;;;;;;92.13;32.90;;;0.70;99.90;;;;;;5034064;28;20201;-80
2024/01/12 08:47:19;;;;;;;90.65;32.72;;;0.70;99.90;;;;;;5016356;28;20200;-80
2024/01/12 08:49:45;;;;;;;80.70;33.08;;;0.70;99.90;;;;;;5016428;28;20197;-80
2024/01/12 08:52:11;;;;;;;88.17;32.93;;;0.70;99.90;;;;;;5016372;28;20565;-80
2024/01/12 08:54:36;;;;;;;82.30;33.10;;;0.70;99.90;;;;;;5034537;28;20754;-80
2024/01/12 08:57:02;;;;;;;89.60;34.50;;;0.70;99.90;;;;;;5033585;28;20668;-80
2024/01/12 08:59:28;;;;;;;88.60;33.17;;;0.70;99.90;;;;;;5034222;28;20170;-81
2024/01/12 09:01:54;;;;;;;95.53;35.73;;;0.70;99.90;;;;;;5016128;28;20166;-80
2024/01/12 09:04:20;;;;;;;86.63;34.00;;;0.70;99.90;;;;;;5016303;28;20419;-80
2024/01/12 09:06:46;;;;;;;103.55;35.53;;;0.70;99.90;;;;;;5033744;28;20239;-80
2024/01/12 09:09:11;;;;;;;90.23;32.07;;;0.70;99.90;;;;;;5033853;28;20201;-80
2024/01/12 09:11:37;;;;;;;99.00;33.00;;;0.70;99.90;;;;;;5034014;28;20231;-81
2024/01/12 09:14:03;;;;;;;83.23;32.80;;;0.70;99.90;;;;;;5038054;28;20631;-80
2024/01/12 09:16:28;;;;;;;78.57;32.30;;;0.70;99.90;;;;;;5040426;28;20189;-80
2024/01/12 09:18:54;;;;;;;76.60;29.63;;;0.70;99.90;;;;;;5040501;28;20166;-80
2024/01/12 09:21:19;;;;;;;95.37;30.57;;;0.80;99.90;;;;;;5040354;28;20173;-80
2024/01/12 09:23:45;;;;;;;70.70;25.83;;;0.80;99.90;;;;;;5022474;28;20169;-80
2024/01/12 09:26:12;;;;;;;62.67;22.85;;;0.80;99.90;;;;;;5039880;28;20288;-80
2024/01/12 09:28:38;;;;;;;63.78;23.17;;;0.80;99.90;;;;;;5040513;28;20232;-80
2024/01/12 09:31:03;;;;;;;71.72;24.13;;;0.90;99.90;;;;;;5022490;28;20165;-80
2024/01/12 09:33:29;;;;;;;71.77;24.53;;;0.90;99.90;;;;;;5022477;28;20512;-80
2024/01/12 09:35:55;;;;;;;67.25;25.55;;;0.90;99.90;;;;;;5040366;28;20404;-80
2024/01/12 09:38:21;;;;;;;69.80;27.98;;;0.90;99.90;;;;;;5040246;28;20180;-80
2024/01/12 09:40:47;;;;;;;68.53;24.30;;;0.80;99.90;;;;;;5040435;28;20631;-80
2024/01/12 09:43:14;;;;;;;65.90;23.67;;;0.90;99.90;;;;;;5040266;28;20653;-81
2024/01/12 09:45:44;;;;;;;76.43;23.27;;;0.80;99.90;;;;;;5040222;28;20408;-81
2024/01/12 09:48:10;;;;;;;60.45;24.25;;;0.80;99.90;;;;;;5022302;28;20165;-80
2024/01/12 09:50:36;;;;;;;73.85;24.60;;;0.80;99.90;;;;;;5040135;28;20200;-79
2024/01/12 09:53:02;;;;;;;55.17;18.03;;;0.90;99.90;;;;;;5022318;28;20256;-80
2024/01/12 09:55:27;;;;;;;54.77;21.70;;;0.90;99.90;;;;;;5040401;28;20181;-79
2024/01/12 09:57:54;;;;;;;55.30;21.13;;;0.90;99.90;;;;;;5022209;28;20424;-80
2024/01/12 10:00:24;;;;;;;50.97;18.48;;;0.90;99.90;;;;;;5040010;28;20184;-80
2024/01/12 10:02:49;;;;;;;53.00;19.70;;;1.00;99.90;;;;;;5022200;28;20174;-80
2024/01/12 10:05:15;;;;;;;57.37;20.60;;;0.90;99.90;;;;;;5040046;28;20173;-80
2024/01/12 10:07:41;;;;;;;54.90;19.93;;;0.90;99.90;;;;;;5022497;28;20225;-80
2024/01/12 10:10:08;;;;;;;64.20;23.00;;;1.00;99.90;;;;;;5022244;28;20667;-80
2024/01/12 10:12:34;;;;;;;61.67;22.55;;;1.00;99.90;;;;;;5040557;28;20487;-81
2024/01/12 10:15:10;;;;;;;62.00;22.20;;;1.00;99.90;;;;;;5040094;28;20192;-80
2024/01/12 10:17:35;;;;;;;64.97;22.00;;;1.00;99.90;;;;;;5021932;28;20607;-80
2024/01/12 10:20:03;;;;;;;64.23;23.33;;;1.00;99.90;;;;;;5039779;28;20208;-80
2024/01/12 10:22:30;;;;;;;58.50;21.73;;;1.00;99.90;;;;;;5039941;28;20411;-80
2024/01/12 10:25:00;;;;;;;65.75;22.77;;;1.10;99.90;;;;;;5037600;28;20235;-80
2024/01/12 10:27:26;;;;;;;61.65;20.83;;;1.10;99.90;;;;;;5018713;28;20205;-80
2024/01/12 10:29:52;;;;;;;66.70;22.10;;;1.10;99.90;;;;;;5037001;28;20330;-80
2024/01/12 10:32:21;;;;;;;65.63;22.83;;;1.10;99.90;;;;;;5018673;28;20206;-81
2024/01/12 10:34:48;;;;;;;63.22;24.67;;;1.10;99.90;;;;;;5018766;28;20534;-80
2024/01/12 10:37:18;;;;;;;62.50;24.20;;;1.20;99.90;;;;;;5036285;28;20182;-80
2024/01/12 10:39:45;;;;;;;62.97;23.45;;;1.10;99.90;;;;;;5036402;28;20170;-80
2024/01/12 10:42:12;;;;;;;61.17;23.25;;;1.10;99.90;;;;;;5036289;28;20170;-80
2024/01/12 10:44:42;;;;;;;69.05;24.15;;;1.10;99.90;;;;;;5036346;28;20166;-81
2024/01/12 10:47:16;;;;;;;65.30;23.17;;;1.10;99.90;;;;;;5018505;28;20346;-80
2024/01/12 10:49:59;;;;;;;63.63;24.83;;;1.10;99.90;;;;;;5036133;28;20182;-81
2024/01/12 10:52:42;;;;;;;60.03;22.90;;;1.10;99.90;;;;;;5036308;28;20143;-80
2024/01/12 10:55:16;;;;;;;66.38;23.70;;;1.10;99.90;;;;;;5036119;28;20177;-80
2024/01/12 10:57:43;;;;;;;60.85;23.88;;;1.20;99.90;;;;;;5035974;28;20558;-80
2024/01/12 11:00:10;;;;;;;60.05;21.95;;;1.20;99.90;;;;;;5036127;28;20166;-80
2024/01/12 11:02:37;;;;;;;53.92;21.30;;;1.20;99.90;;;;;;5018613;28;20177;-80
2024/01/12 11:05:07;;;;;;;61.60;22.58;;;1.20;99.90;;;;;;5017939;28;20201;-81
2024/01/12 11:07:34;;;;;;;57.13;19.92;;;1.20;99.90;;;;;;5035643;28;20192;-80
2024/01/12 11:10:00;;;;;;;53.10;21.60;;;1.20;99.90;;;;;;5036171;28;20218;-80
2024/01/12 11:12:32;;;;;;;58.60;22.10;;;1.30;99.90;;;;;;5018120;28;20196;-80
2024/01/12 11:14:59;;;;;;;66.25;24.10;;;1.30;99.90;;;;;;5017905;28;20401;-80
2024/01/12 11:17:28;;;;;;;66.60;22.90;;;1.20;99.90;;;;;;5017872;28;20194;-80
2024/01/12 11:20:24;;;;;;;72.78;25.35;;;1.20;99.90;;;;;;5017869;28;20170;-80
2024/01/12 11:22:50;;;;;;;75.63;23.42;;;1.20;99.90;;;;;;5018490;28;20186;-80
2024/01/12 11:25:18;;;;;;;71.90;26.27;;;1.20;99.90;;;;;;5017595;28;20594;-80
2024/01/12 11:27:49;;;;;;;60.88;23.10;;;1.20;99.90;;;;;;5017293;28;20626;-81
2024/01/12 11:30:17;;;;;;;72.75;24.40;;;1.20;99.90;;;;;;5035537;28;20193;-81
2024/01/12 11:32:44;;;;;;;78.15;25.90;;;1.20;99.90;;;;;;5034893;28;20158;-80
2024/01/12 11:35:13;;;;;;;63.00;22.33;;;1.30;99.90;;;;;;5017580;28;20174;-80
2024/01/12 11:37:44;;;;;;;66.53;22.30;;;1.30;99.90;;;;;;5017799;28;20186;-80
2024/01/12 11:40:15;;;;;;;77.57;26.52;;;1.30;99.90;;;;;;5035407;28;20675;-82
2024/01/12 11:42:43;;;;;;;79.00;24.88;;;1.40;99.90;;;;;;5017335;28;20543;-80
2024/01/12 11:45:11;;;;;;;78.88;27.90;;;1.40;99.90;;;;;;5034914;28;20695;-81
2024/01/12 11:47:41;;;;;;;61.55;23.38;;;1.40;99.90;;;;;;5035067;28;20659;-81
2024/01/12 11:50:09;;;;;;;65.63;23.67;;;1.40;99.90;;;;;;5035154;28;20540;-80
2024/01/12 11:52:38;;;;;;;65.38;25.63;;;1.40;99.90;;;;;;5034784;28;20222;-80
2024/01/12 11:55:07;;;;;;;62.78;23.67;;;1.40;99.90;;;;;;5017149;28;20173;-82
2024/01/12 11:57:37;;;;;;;56.80;22.65;;;1.40;99.90;;;;;;5034909;28;20182;-81
2024/01/12 12:00:04;;;;;;;59.30;22.45;;;1.40;99.90;;;;;;5034590;28;20547;-80
2024/01/12 12:02:29;;;;;;;57.17;20.70;;;1.40;99.90;;;;;;5034472;28;20166;-82
2024/01/12 12:04:56;;;;;;;50.70;20.37;;;1.30;99.90;;;;;;5034697;28;20170;-80
2024/01/12 12:07:26;;;;;;;55.75;21.80;;;1.30;99.90;;;;;;5034578;28;20555;-80
2024/01/12 12:09:53;;;;;;;50.45;19.98;;;1.30;99.90;;;;;;5016752;28;20190;-80
2024/01/12 12:12:21;;;;;;;52.25;19.30;;;1.30;99.90;;;;;;5016641;28;20244;-80
2024/01/12 12:15:06;;;;;;;55.97;18.55;;;1.30;99.90;;;;;;5034447;28;20193;-81
2024/01/12 12:17:36;;;;;;;55.42;22.38;;;1.30;99.90;;;;;;5016617;28;20195;-80
2024/01/12 12:20:10;;;;;;;56.58;20.85;;;1.30;99.90;;;;;;5034956;28;20154;-80
2024/01/12 12:22:37;;;;;;;52.60;22.35;;;1.30;99.90;;;;;;5016897;28;20624;-80
2024/01/12 12:25:03;;;;;;;69.80;22.55;;;1.20;99.90;;;;;;5034247;28;20166;-80
2024/01/12 12:27:28;;;;;;;66.10;27.30;;;1.30;99.90;;;;;;5033918;28;20288;-81
2024/01/12 12:29:54;;;;;;;65.07;28.73;;;1.30;99.90;;;;;;5034115;28;20801;-81